Time;durP1;ratioP1;P1;durP2;ratioP2;P2;SDS_P1;SDS_P2;PMS_P1;PMS_P2;Temp;Humidity;BMP_temperature;BMP_pressure;BME280_temperature;BME280_humidity;BME280_pressure;Samples;Min_cycle;Max_cycle;Signal;HPM_P1;HPM_P2
2024/02/02 00:02:42;;;;;;;8.60;3.10;;;;;;;3.86;80.43;100600.51;130253;1264;106397;-86
2024/02/02 00:05:47;;;;;;;10.30;3.30;;;;;;;3.86;80.21;100599.80;129863;1264;108389;-85
2024/02/02 00:08:53;;;;;;;15.40;4.80;;;;;;;3.84;80.70;100606.11;129820;1264;108502;-87
2024/02/02 00:11:59;;;;;;;11.30;3.60;;;;;;;3.82;80.91;100602.75;129822;1268;108838;-86
2024/02/02 00:15:05;;;;;;;10.30;3.90;;;;;;;3.71;81.45;100604.66;129839;1271;108690;-85
2024/02/02 00:18:11;;;;;;;13.90;3.90;;;;;;;3.67;81.40;100603.73;129866;1269;108734;-86
2024/02/02 00:21:17;;;;;;;11.00;3.60;;;;;;;3.65;81.10;100608.80;129840;1264;107069;-86
2024/02/02 00:24:23;;;;;;;10.30;3.00;;;;;;;3.67;80.68;100605.84;129785;1264;108271;-85
2024/02/02 00:27:28;;;;;;;11.10;2.80;;;;;;;3.67;80.46;100609.67;129846;1264;108606;-85
2024/02/02 00:30:35;;;;;;;12.20;3.20;;;;;;;3.64;80.53;100614.46;129778;1264;106068;-86
2024/02/02 00:33:41;;;;;;;8.30;2.90;;;;;;;3.63;80.33;100620.88;130059;1264;108683;-86
2024/02/02 00:36:46;;;;;;;12.50;3.00;;;;;;;3.63;80.14;100618.25;129977;1267;108902;-86
2024/02/02 00:39:52;;;;;;;12.80;3.00;;;;;;;3.64;80.16;100617.65;129938;1263;108729;-85
2024/02/02 00:42:58;;;;;;;14.40;3.20;;;;;;;3.64;79.99;100621.36;130095;1264;108690;-86
2024/02/02 00:46:03;;;;;;;10.70;3.30;;;;;;;3.68;80.25;100627.89;130270;1262;108825;-86
2024/02/02 00:49:10;;;;;;;12.40;3.40;;;;;;;3.71;79.94;100620.16;130330;1265;108316;-86
2024/02/02 00:52:16;;;;;;;9.80;3.10;;;;;;;3.76;79.74;100626.73;130066;1265;106548;-85
2024/02/02 00:55:22;;;;;;;9.50;3.00;;;;;;;3.75;79.67;100626.58;129907;1267;108852;-86
2024/02/02 00:58:28;;;;;;;10.70;3.10;;;;;;;3.74;79.83;100626.98;129972;1267;107680;-86
2024/02/02 01:01:33;;;;;;;11.70;3.20;;;;;;;3.71;79.71;100623.87;129875;1263;108598;-86
2024/02/02 01:04:39;;;;;;;12.50;2.60;;;;;;;3.66;79.55;100627.85;129933;1264;107089;-85
2024/02/02 01:07:47;;;;;;;9.60;2.60;;;;;;;3.64;79.75;100628.76;129888;1267;107645;-87
2024/02/02 01:10:53;;;;;;;9.90;2.40;;;;;;;3.63;79.59;100633.85;129879;1264;107139;-85
2024/02/02 01:13:59;;;;;;;12.60;2.60;;;;;;;3.64;79.40;100632.58;129997;1267;106449;-84
2024/02/02 01:17:05;;;;;;;12.10;2.70;;;;;;;3.65;79.39;100641.51;129862;1264;106590;-88
2024/02/02 01:20:13;;;;;;;11.60;2.80;;;;;;;3.67;79.32;100645.92;130047;1267;106425;-87
2024/02/02 01:23:19;;;;;;;14.20;3.30;;;;;;;3.70;79.20;100643.46;129980;1267;108774;-86
2024/02/02 01:26:25;;;;;;;14.50;3.30;;;;;;;3.70;78.78;100643.82;129911;1264;107756;-85
2024/02/02 01:29:33;;;;;;;9.80;2.60;;;;;;;3.66;78.72;100644.95;129978;1267;107212;-86
2024/02/02 01:32:39;;;;;;;9.80;2.90;;;;;;;3.63;78.66;100643.05;130035;1265;108346;-85
2024/02/02 01:35:45;;;;;;;10.40;2.60;;;;;;;3.60;78.74;100644.10;130001;1262;107754;-86
2024/02/02 01:38:51;;;;;;;15.70;3.90;;;;;;;3.63;78.79;100643.57;129967;1279;107550;-85
2024/02/02 01:41:56;;;;;;;14.80;3.90;;;;;;;3.68;78.43;100647.11;129885;1267;107448;-87
2024/02/02 01:45:02;;;;;;;12.40;2.80;;;;;;;3.73;78.61;100655.58;129920;1266;107518;-85
2024/02/02 01:48:09;;;;;;;10.70;2.70;;;;;;;3.74;78.42;100654.42;129967;1264;107510;-86
2024/02/02 01:51:15;;;;;;;10.30;2.60;;;;;;;3.74;78.12;100657.95;130065;1264;108768;-84
2024/02/02 01:54:21;;;;;;;9.30;2.90;;;;;;;3.71;78.32;100664.29;129875;1264;107356;-87
2024/02/02 01:57:27;;;;;;;14.30;2.70;;;;;;;3.64;78.40;100651.23;129922;1264;106476;-87
2024/02/02 02:00:33;;;;;;;11.80;3.00;;;;;;;3.69;78.35;100661.98;129870;1264;108788;-86
2024/02/02 02:03:39;;;;;;;9.80;2.60;;;;;;;3.69;78.70;100661.45;129996;1262;108682;-86
2024/02/02 02:06:44;;;;;;;10.00;2.90;;;;;;;3.68;78.65;100672.23;130006;1267;108268;-84
2024/02/02 02:09:50;;;;;;;10.60;2.80;;;;;;;3.69;78.76;100677.84;129883;1263;108584;-85
2024/02/02 02:12:57;;;;;;;13.40;3.10;;;;;;;3.71;78.78;100675.08;129844;1267;107529;-85
2024/02/02 02:16:02;;;;;;;11.00;2.60;;;;;;;3.74;78.65;100675.91;130087;1264;108554;-86
2024/02/02 02:19:13;;;;;;;12.60;3.10;;;;;;;3.74;78.58;100678.71;130280;1266;108682;-85
2024/02/02 02:22:19;;;;;;;9.80;3.00;;;;;;;3.75;78.45;100679.56;130250;1263;108687;-86
2024/02/02 02:25:24;;;;;;;8.40;2.50;;;;;;;3.74;78.58;100688.55;130321;1264;108684;-86
2024/02/02 02:28:30;;;;;;;10.30;2.60;;;;;;;3.74;78.57;100685.95;129772;1279;107668;-87
2024/02/02 02:31:36;;;;;;;13.20;3.20;;;;;;;3.74;78.58;100690.71;129858;1264;107399;-85
2024/02/02 02:34:41;;;;;;;11.30;2.70;;;;;;;3.71;78.62;100687.54;129812;1264;106842;-87
2024/02/02 02:37:47;;;;;;;11.80;3.20;;;;;;;3.69;78.81;100692.45;129930;1266;107752;-86
2024/02/02 02:40:53;;;;;;;11.40;2.70;;;;;;;3.73;78.63;100690.04;129912;1267;108763;-85
2024/02/02 02:43:58;;;;;;;10.20;3.10;;;;;;;3.76;78.76;100689.67;129871;1264;108010;-84
2024/02/02 02:47:05;;;;;;;16.40;2.90;;;;;;;3.82;78.55;100693.88;130076;1263;107270;-84
2024/02/02 02:50:11;;;;;;;12.00;2.90;;;;;;;3.80;78.32;100699.45;129862;1266;108175;-85
2024/02/02 02:53:17;;;;;;;10.00;3.00;;;;;;;3.79;78.37;100698.83;129890;1263;108285;-85
2024/02/02 02:56:23;;;;;;;10.40;2.60;;;;;;;3.78;78.23;100700.30;129822;1263;105598;-88
2024/02/02 02:59:30;;;;;;;10.50;3.10;;;;;;;3.74;78.17;100697.39;129897;1267;108421;-85
2024/02/02 03:02:35;;;;;;;10.40;2.70;;;;;;;3.73;78.02;100694.65;129925;1267;107577;-87
2024/02/02 03:05:41;;;;;;;12.00;3.30;;;;;;;3.71;78.04;100693.90;129959;1267;108741;-85
2024/02/02 03:08:47;;;;;;;13.80;2.60;;;;;;;3.68;77.83;100692.28;130247;1263;107472;-87
2024/02/02 03:11:53;;;;;;;9.80;2.40;;;;;;;3.72;77.99;100699.27;130448;1263;107174;-86
2024/02/02 03:14:58;;;;;;;9.80;2.10;;;;;;;3.75;77.46;100699.23;130047;1266;108739;-86
2024/02/02 03:18:04;;;;;;;14.10;3.10;;;;;;;3.80;77.55;100697.38;130013;1264;107400;-85
2024/02/02 03:21:10;;;;;;;9.60;2.80;;;;;;;3.83;77.41;100693.65;129945;1266;106463;-84
2024/02/02 03:24:16;;;;;;;8.90;2.60;;;;;;;3.80;77.27;100698.75;130050;1263;108533;-87
2024/02/02 03:27:22;;;;;;;14.20;3.30;;;;;;;3.76;77.14;100701.13;129941;1267;107776;-86
2024/02/02 03:30:28;;;;;;;18.20;3.50;;;;;;;3.69;77.01;100703.33;129710;1264;107704;-87
2024/02/02 03:33:34;;;;;;;14.60;3.10;;;;;;;3.61;77.14;100710.73;129929;1264;108495;-84
2024/02/02 03:36:39;;;;;;;14.60;5.40;;;;;;;3.56;77.46;100713.16;129931;1264;108671;-82
2024/02/02 03:39:45;;;;;;;17.20;6.00;;;;;;;3.53;77.47;100712.27;129650;1267;108881;-83
2024/02/02 03:42:51;;;;;;;12.60;4.30;;;;;;;3.49;77.50;100722.70;129845;1269;108437;-85
2024/02/02 03:45:57;;;;;;;15.30;4.60;;;;;;;3.49;77.62;100728.84;129803;1264;106377;-82
2024/02/02 03:49:03;;;;;;;29.00;8.60;;;;;;;3.49;77.61;100729.73;130280;1263;107644;-83
2024/02/02 03:52:08;;;;;;;16.40;4.20;;;;;;;3.49;77.63;100737.45;130321;1263;107732;-88
2024/02/02 03:55:14;;;;;;;17.80;5.00;;;;;;;3.52;77.63;100741.16;130821;1266;107676;-88
2024/02/02 03:58:20;;;;;;;20.20;5.20;;;;;;;3.49;77.44;100742.23;130930;1263;108746;-89
2024/02/02 04:01:26;;;;;;;18.30;5.30;;;;;;;3.45;77.52;100741.58;130323;1264;108790;-90
2024/02/02 04:04:32;;;;;;;30.30;12.50;;;;;;;3.43;77.67;100744.55;130468;1266;107144;-92
2024/02/02 04:07:38;;;;;;;169.50;43.70;;;;;;;3.41;77.83;100740.62;130623;1266;107869;-90
2024/02/02 04:10:44;;;;;;;89.60;33.60;;;;;;;3.37;77.76;100745.64;130393;1266;108729;-87
2024/02/02 04:13:49;;;;;;;113.30;44.20;;;;;;;3.32;77.93;100743.61;130107;1263;107684;-88
2024/02/02 04:16:56;;;;;;;22.60;7.60;;;;;;;3.27;77.93;100744.11;130163;1266;108841;-87
2024/02/02 04:20:01;;;;;;;55.90;27.80;;;;;;;3.23;77.88;100748.56;130233;1267;108682;-88
2024/02/02 04:23:07;;;;;;;61.10;15.70;;;;;;;3.24;78.07;100751.15;130057;1266;108722;-87
2024/02/02 04:26:13;;;;;;;86.20;32.90;;;;;;;3.29;78.11;100741.91;130206;1262;107713;-88
2024/02/02 04:29:18;;;;;;;38.30;19.90;;;;;;;3.35;77.99;100742.56;130171;1264;107505;-88
2024/02/02 04:32:24;;;;;;;16.90;4.30;;;;;;;3.41;77.86;100748.75;130184;1263;108742;-89
2024/02/02 04:35:34;;;;;;;15.20;3.20;;;;;;;3.40;77.80;100751.27;130204;1264;108687;-92
2024/02/02 04:38:41;;;;;;;14.70;4.50;;;;;;;3.38;77.80;100748.55;130478;1263;108825;-88
2024/02/02 04:41:48;;;;;;;17.30;6.60;;;;;;;3.38;77.82;100754.86;130294;1263;108688;-88
2024/02/02 04:44:53;;;;;;;69.90;21.30;;;;;;;3.34;77.72;100760.55;130223;1264;108697;-87
2024/02/02 04:47:59;;;;;;;588.50;167.80;;;;;;;3.33;77.96;100756.43;130314;1263;109094;-88
2024/02/02 04:51:05;;;;;;;95.90;29.50;;;;;;;3.33;77.81;100755.17;130252;1266;108624;-88
2024/02/02 04:54:11;;;;;;;24.30;8.40;;;;;;;3.32;77.91;100763.66;130409;1266;108904;-86
2024/02/02 04:57:16;;;;;;;19.10;7.80;;;;;;;3.31;77.85;100767.95;130120;1266;108641;-87
2024/02/02 05:00:22;;;;;;;27.30;8.00;;;;;;;3.32;77.78;100769.68;130181;1263;108150;-87
2024/02/02 05:03:31;;;;;;;15.00;4.50;;;;;;;3.32;77.67;100771.07;130242;1263;108771;-88
2024/02/02 05:06:37;;;;;;;265.10;88.60;;;;;;;3.35;77.68;100766.30;130288;1264;107316;-88
2024/02/02 05:09:43;;;;;;;25.40;8.20;;;;;;;3.39;77.58;100768.03;130467;1266;107774;-89
2024/02/02 05:12:52;;;;;;;17.80;6.20;;;;;;;3.42;77.56;100769.77;130563;1263;108869;-89
2024/02/02 05:16:00;;;;;;;19.10;6.40;;;;;;;3.44;77.50;100766.79;130562;1262;107167;-90
2024/02/02 05:19:06;;;;;;;17.50;5.40;;;;;;;3.45;77.41;100761.48;130678;1262;108780;-89
2024/02/02 05:22:11;;;;;;;40.50;19.20;;;;;;;3.44;77.26;100760.48;130165;1264;108612;-88
2024/02/02 05:25:17;;;;;;;18.70;5.00;;;;;;;3.40;77.30;100763.16;129943;1263;107614;-88
2024/02/02 05:28:23;;;;;;;11.30;3.50;;;;;;;3.36;77.38;100765.70;130037;1264;108752;-86
2024/02/02 05:31:28;;;;;;;12.40;3.10;;;;;;;3.37;77.53;100762.16;129983;1267;108697;-87
2024/02/02 05:34:34;;;;;;;13.70;5.20;;;;;;;3.38;77.43;100768.22;130116;1266;106019;-87
2024/02/02 05:37:39;;;;;;;11.90;3.30;;;;;;;3.45;77.57;100766.61;130465;1265;108631;-87
2024/02/02 05:40:45;;;;;;;12.30;3.70;;;;;;;3.50;77.28;100766.81;130187;1263;108739;-88
2024/02/02 05:43:51;;;;;;;13.20;4.40;;;;;;;3.52;77.41;100770.89;130174;1263;107542;-88
2024/02/02 05:46:57;;;;;;;18.40;7.70;;;;;;;3.57;77.19;100773.09;130294;1264;108626;-87
2024/02/02 05:50:02;;;;;;;11.80;3.50;;;;;;;3.55;77.23;100776.19;130372;1266;106973;-89
2024/02/02 05:53:08;;;;;;;19.90;6.30;;;;;;;3.50;77.37;100784.71;130133;1266;107707;-88
2024/02/02 05:56:14;;;;;;;13.30;4.10;;;;;;;3.40;77.35;100777.45;130053;1267;107476;-88
2024/02/02 05:59:20;;;;;;;88.60;36.00;;;;;;;3.43;77.48;100794.67;130003;1263;108405;-88
2024/02/02 06:02:26;;;;;;;17.50;4.20;;;;;;;3.42;77.54;100796.86;130251;1262;107148;-87
2024/02/02 06:05:33;;;;;;;13.00;3.70;;;;;;;3.39;77.27;100795.42;130065;1264;107205;-88
2024/02/02 06:08:38;;;;;;;12.10;3.40;;;;;;;3.37;76.88;100799.61;130331;1265;108701;-91
2024/02/02 06:11:44;;;;;;;16.60;4.50;;;;;;;3.39;76.83;100806.55;130662;1262;107679;-90
2024/02/02 06:14:49;;;;;;;12.60;4.20;;;;;;;3.47;76.89;100805.88;130210;1262;108833;-88
2024/02/02 06:17:55;;;;;;;12.80;3.20;;;;;;;3.52;76.81;100809.92;130193;1263;108875;-88
2024/02/02 06:21:02;;;;;;;13.60;3.80;;;;;;;3.56;76.74;100818.32;130145;1266;107305;-86
2024/02/02 06:24:11;;;;;;;12.90;3.90;;;;;;;3.56;76.67;100827.12;130101;1263;108269;-88
2024/02/02 06:27:16;;;;;;;13.80;3.20;;;;;;;3.55;76.54;100835.98;130079;1263;108655;-88
2024/02/02 06:30:22;;;;;;;12.00;3.30;;;;;;;3.52;76.63;100836.67;130242;1263;108785;-88
2024/02/02 06:33:28;;;;;;;14.40;4.20;;;;;;;3.51;76.60;100830.60;130453;1263;108643;-89
2024/02/02 06:36:33;;;;;;;12.60;3.40;;;;;;;3.46;76.65;100827.73;130332;1267;105707;-87
2024/02/02 06:39:39;;;;;;;46.40;9.90;;;;;;;3.44;76.74;100826.08;130075;1267;107238;-88
2024/02/02 06:42:45;;;;;;;19.50;4.90;;;;;;;3.45;76.79;100831.67;129998;1263;106680;-89
2024/02/02 06:45:51;;;;;;;20.00;5.00;;;;;;;3.48;76.76;100825.84;130004;1266;107342;-88
2024/02/02 06:48:57;;;;;;;39.90;9.80;;;;;;;3.59;76.65;100826.06;130120;1264;108564;-89
2024/02/02 06:52:02;;;;;;;23.70;5.80;;;;;;;3.64;76.41;100818.33;130105;1267;108722;-86
2024/02/02 06:55:09;;;;;;;16.00;4.50;;;;;;;3.70;75.99;100817.27;130193;1263;108816;-87
2024/02/02 06:58:32;;;;;;;14.40;4.90;;;;;;;3.70;75.41;100814.48;130000;1267;108755;-88
2024/02/02 07:01:38;;;;;;;10.60;2.80;;;;;;;3.68;75.57;100825.48;129995;1263;107076;-88
2024/02/02 07:04:44;;;;;;;18.30;8.30;;;;;;;3.65;75.51;100824.80;130354;1267;109040;-87
2024/02/02 07:07:50;;;;;;;25.20;11.60;;;;;;;3.65;75.58;100828.68;130072;1262;108666;-89
2024/02/02 07:11:16;;;;;;;27.90;8.80;;;;;;;3.66;75.66;100834.41;129753;1267;108701;-89
2024/02/02 07:14:43;;;;;;;13.30;3.80;;;;;;;3.67;75.68;100840.86;129949;1264;108179;-88
2024/02/02 07:17:50;;;;;;;14.50;4.20;;;;;;;3.69;75.85;100841.63;130022;1264;108244;-89
2024/02/02 07:21:07;;;;;;;14.40;3.50;;;;;;;3.69;75.90;100841.42;130022;1266;107526;-88
2024/02/02 07:24:13;;;;;;;18.80;5.70;;;;;;;3.71;75.63;100846.23;130164;1262;108776;-88
2024/02/02 07:27:49;;;;;;;39.90;16.90;;;;;;;3.77;75.64;100848.19;130062;1263;108498;-88
2024/02/02 07:30:55;;;;;;;21.90;7.50;;;;;;;3.83;75.36;100850.94;129934;1266;107522;-87
2024/02/02 07:34:13;;;;;;;45.30;15.60;;;;;;;3.88;75.66;100848.01;130006;1264;108781;-87
2024/02/02 07:37:38;;;;;;;376.20;148.50;;;;;;;3.93;74.93;100852.42;130035;1267;107558;-88
2024/02/02 07:41:04;;;;;;;191.90;68.10;;;;;;;4.00;75.49;100852.77;130028;1266;107799;-87
2024/02/02 07:44:11;;;;;;;155.40;68.20;;;;;;;4.03;74.65;100853.60;129922;1264;108691;-87
2024/02/02 07:47:17;;;;;;;57.40;16.00;;;;;;;4.02;74.19;100854.00;130002;1263;107401;-87
2024/02/02 07:50:23;;;;;;;48.10;15.30;;;;;;;3.95;74.25;100852.16;130090;1266;107735;-88
2024/02/02 07:53:29;;;;;;;403.10;150.10;;;;;;;3.93;74.35;100850.53;130042;1266;108516;-87
2024/02/02 07:56:35;;;;;;;55.40;14.40;;;;;;;3.93;74.03;100855.25;130075;1264;108068;-87
2024/02/02 07:59:41;;;;;;;38.10;9.90;;;;;;;3.90;73.63;100852.44;130148;1263;107748;-87
2024/02/02 08:02:47;;;;;;;297.00;100.20;;;;;;;3.82;73.80;100856.13;129987;1266;108594;-88
2024/02/02 08:05:53;;;;;;;200.10;67.70;;;;;;;3.77;74.00;100856.80;130251;1262;107989;-88
2024/02/02 08:08:59;;;;;;;87.80;30.50;;;;;;;3.78;74.49;100858.67;130114;1265;108265;-87
2024/02/02 08:12:05;;;;;;;32.30;9.20;;;;;;;3.83;74.74;100859.24;130036;1262;108586;-87
2024/02/02 08:15:11;;;;;;;24.10;7.40;;;;;;;3.76;74.64;100849.47;129948;1267;108610;-89
2024/02/02 08:18:17;;;;;;;14.10;4.60;;;;;;;3.80;74.79;100859.81;129976;1266;106562;-88
2024/02/02 08:21:25;;;;;;;246.10;75.00;;;;;;;3.85;75.00;100863.52;130008;1266;108010;-87
2024/02/02 08:24:30;;;;;;;56.70;17.40;;;;;;;3.97;75.19;100857.30;130007;1264;108813;-88
2024/02/02 08:27:36;;;;;;;189.40;66.00;;;;;;;4.08;74.93;100858.56;129981;1264;108596;-88
2024/02/02 08:30:42;;;;;;;24.20;6.40;;;;;;;4.16;75.32;100858.05;129934;1267;108328;-87
2024/02/02 08:33:47;;;;;;;59.60;25.10;;;;;;;4.14;75.27;100855.90;130245;1266;107736;-88
2024/02/02 08:36:54;;;;;;;73.70;32.70;;;;;;;4.17;75.68;100854.48;129903;1264;106444;-87
2024/02/02 08:39:59;;;;;;;48.90;20.80;;;;;;;4.23;75.69;100859.21;129926;1264;106900;-86
2024/02/02 08:43:05;;;;;;;22.40;8.70;;;;;;;4.30;75.87;100861.21;129930;1266;107456;-88
2024/02/02 08:46:13;;;;;;;20.30;6.30;;;;;;;4.30;75.89;100863.88;129929;1263;108799;-87
2024/02/02 08:49:47;;;;;;;230.20;76.80;;;;;;;4.31;76.12;100854.29;130205;1266;107599;-86
2024/02/02 08:52:56;;;;;;;125.60;41.50;;;;;;;4.40;75.84;100861.83;129972;1265;107893;-88
2024/02/02 08:56:02;;;;;;;228.00;76.80;;;;;;;4.41;76.03;100858.80;130026;1265;107761;-86
2024/02/02 08:59:32;;;;;;;136.10;45.10;;;;;;;4.52;76.17;100856.69;130520;1266;108548;-90
2024/02/02 09:02:56;;;;;;;248.80;91.40;;;;;;;4.72;76.04;100855.89;129920;1264;107868;-86
2024/02/02 09:06:07;;;;;;;133.20;46.70;;;;;;;4.88;75.92;100852.55;129998;1267;106898;-88
2024/02/02 09:09:17;;;;;;;125.30;43.60;;;;;;;5.00;75.55;100849.99;130028;1267;107545;-88
2024/02/02 09:12:28;;;;;;;91.20;30.80;;;;;;;5.00;75.37;100849.96;130063;1267;108741;-87
2024/02/02 09:15:35;;;;;;;111.20;42.10;;;;;;;4.95;75.47;100853.99;130058;1264;108435;-87
2024/02/02 09:18:44;;;;;;;96.40;33.00;;;;;;;4.87;75.37;100861.63;130308;1263;106980;-88
2024/02/02 09:21:51;;;;;;;25.10;6.50;;;;;;;4.80;75.42;100866.66;130099;1264;108500;-86
2024/02/02 09:24:57;;;;;;;83.90;31.90;;;;;;;4.76;76.00;100863.08;129998;1264;107899;-88
2024/02/02 09:28:03;;;;;;;69.70;29.90;;;;;;;4.90;76.01;100858.39;130034;1264;108817;-87
2024/02/02 09:31:12;;;;;;;19.40;6.60;;;;;;;5.08;75.88;100863.20;129931;1264;106368;-88
2024/02/02 09:34:24;;;;;;;77.20;34.30;;;;;;;5.26;75.68;100862.87;130110;1264;107682;-87
2024/02/02 09:37:42;;;;;;;70.20;31.80;;;;;;;5.46;75.66;100864.48;129924;1267;107445;-87
2024/02/02 09:41:26;;;;;;;19.70;6.40;;;;;;;5.64;74.33;100870.72;130189;1266;108619;-88
2024/02/02 09:44:54;;;;;;;21.90;8.30;;;;;;;5.49;73.78;100871.17;130006;1265;106671;-87
2024/02/02 09:48:14;;;;;;;25.20;9.70;;;;;;;5.43;74.13;100872.82;129992;1267;108842;-88
2024/02/02 09:51:28;;;;;;;16.20;5.70;;;;;;;5.40;74.53;100867.73;130126;1266;108240;-87
2024/02/02 09:54:42;;;;;;;21.90;7.80;;;;;;;5.44;74.39;100858.64;129862;1265;107695;-87
2024/02/02 09:57:55;;;;;;;27.80;13.50;;;;;;;5.46;73.77;100856.43;129853;1267;107948;-87
2024/02/02 10:01:14;;;;;;;57.80;26.20;;;;;;;5.42;73.70;100857.54;130070;1263;107666;-88
2024/02/02 10:04:41;;;;;;;54.80;22.70;;;;;;;5.38;73.59;100850.09;129973;1266;108687;-87
2024/02/02 10:07:58;;;;;;;30.20;11.10;;;;;;;5.38;73.99;100845.66;129939;1268;108888;-88
2024/02/02 10:11:18;;;;;;;112.90;51.80;;;;;;;5.37;73.85;100847.28;129972;1264;108822;-87
2024/02/02 10:14:50;;;;;;;70.10;26.70;;;;;;;5.43;73.96;100841.77;129936;1267;108689;-87
2024/02/02 10:18:27;;;;;;;49.00;24.20;;;;;;;5.51;73.65;100840.52;129785;1266;108793;-87
2024/02/02 10:21:41;;;;;;;24.90;9.20;;;;;;;5.58;72.35;100845.52;129918;1266;108567;-87
2024/02/02 10:25:03;;;;;;;18.60;8.60;;;;;;;5.55;71.85;100842.19;129870;1266;108667;-86
2024/02/02 10:28:23;;;;;;;25.70;10.90;;;;;;;5.56;72.99;100837.05;129810;1264;108992;-87
2024/02/02 10:31:46;;;;;;;18.20;5.60;;;;;;;5.61;72.76;100840.35;129928;1279;108579;-87
2024/02/02 10:35:05;;;;;;;18.00;5.70;;;;;;;5.51;72.49;100840.37;129920;1266;105848;-87
2024/02/02 10:38:28;;;;;;;17.60;7.60;;;;;;;5.49;73.33;100836.41;129908;1266;108717;-87
2024/02/02 10:41:46;;;;;;;25.60;14.10;;;;;;;5.56;73.94;100832.23;129854;1267;108700;-87
2024/02/02 10:45:06;;;;;;;131.40;50.20;;;;;;;5.74;73.72;100826.58;129876;1266;106348;-87
2024/02/02 10:48:29;;;;;;;293.10;108.00;;;;;;;5.85;73.75;100821.70;129918;1265;108602;-87
2024/02/02 10:51:44;;;;;;;59.50;22.00;;;;;;;6.01;73.27;100815.73;129893;1264;107237;-87
2024/02/02 10:55:05;;;;;;;137.90;72.70;;;;;;;6.01;73.08;100805.61;129877;1264;106529;-88
2024/02/02 10:58:24;;;;;;;24.90;8.20;;;;;;;6.07;73.15;100802.88;130005;1265;108617;-87
2024/02/02 11:01:40;;;;;;;22.90;10.50;;;;;;;6.05;72.13;100805.89;129876;1264;108514;-87
2024/02/02 11:04:56;;;;;;;33.10;16.50;;;;;;;5.99;72.71;100805.23;129989;1267;108084;-86
2024/02/02 11:08:06;;;;;;;36.20;16.00;;;;;;;5.94;72.87;100806.14;129976;1268;107152;-87
2024/02/02 11:11:17;;;;;;;17.50;7.50;;;;;;;5.99;73.07;100815.15;129910;1280;107677;-87
2024/02/02 11:14:35;;;;;;;31.40;15.30;;;;;;;6.04;72.39;100812.65;129913;1266;107743;-87
2024/02/02 11:17:49;;;;;;;22.50;9.30;;;;;;;6.09;72.45;100812.13;129936;1266;107796;-88
2024/02/02 11:21:11;;;;;;;16.70;5.80;;;;;;;6.22;72.35;100820.19;129863;1266;109264;-87
2024/02/02 11:24:24;;;;;;;30.10;12.40;;;;;;;6.21;71.46;100819.20;129867;1266;106500;-87
2024/02/02 11:27:41;;;;;;;16.10;6.00;;;;;;;6.21;71.58;100817.13;129854;1266;108534;-87
2024/02/02 11:31:00;;;;;;;19.80;5.60;;;;;;;6.26;71.53;100816.56;129886;1268;109701;-87
2024/02/02 11:34:17;;;;;;;24.00;9.50;;;;;;;6.34;72.43;100817.06;130007;1267;108927;-86
2024/02/02 11:37:33;;;;;;;20.70;7.50;;;;;;;6.35;71.30;100811.13;129955;1266;108724;-87
2024/02/02 11:40:41;;;;;;;17.30;6.80;;;;;;;6.34;71.57;100801.32;129949;1267;106381;-88
2024/02/02 11:43:48;;;;;;;21.20;5.20;;;;;;;6.43;71.31;100789.14;129857;1266;108795;-87
2024/02/02 11:46:55;;;;;;;17.60;4.50;;;;;;;6.51;71.33;100786.46;129868;1266;106885;-87
2024/02/02 11:50:07;;;;;;;15.30;4.90;;;;;;;6.54;71.55;100781.45;129933;1267;108677;-87
2024/02/02 11:53:20;;;;;;;14.10;4.00;;;;;;;6.62;71.09;100779.77;129942;1266;108395;-87
2024/02/02 11:56:33;;;;;;;13.50;3.80;;;;;;;6.62;70.11;100782.65;129907;1266;106739;-90
2024/02/02 11:59:43;;;;;;;17.00;5.00;;;;;;;6.52;69.55;100762.03;129920;1266;107596;-86
2024/02/02 12:03:16;;;;;;;18.90;6.20;;;;;;;6.53;70.37;100755.73;129884;1266;107511;-86
2024/02/02 12:06:25;;;;;;;16.10;5.70;;;;;;;6.61;70.49;100756.38;129985;1264;107043;-87
2024/02/02 12:09:40;;;;;;;16.90;5.70;;;;;;;6.69;70.32;100756.48;129930;1267;108019;-86
2024/02/02 12:12:59;;;;;;;18.90;6.90;;;;;;;6.76;70.44;100744.61;129891;1282;108434;-89
2024/02/02 12:16:08;;;;;;;61.60;30.60;;;;;;;6.85;70.88;100735.78;129893;1264;108626;-87
2024/02/02 12:19:15;;;;;;;48.90;26.90;;;;;;;6.96;70.36;100731.27;129877;1264;108611;-87
2024/02/02 12:22:25;;;;;;;24.40;13.20;;;;;;;7.01;70.11;100723.45;129874;1264;107728;-87
2024/02/02 12:25:30;;;;;;;33.90;15.70;;;;;;;6.99;70.20;100700.98;129816;1267;107748;-88
2024/02/02 12:28:36;;;;;;;26.10;10.60;;;;;;;7.14;69.64;100708.50;129905;1266;108737;-87
2024/02/02 12:31:42;;;;;;;25.60;8.50;;;;;;;7.11;69.39;100705.37;130005;1265;108492;-87
2024/02/02 12:34:53;;;;;;;19.80;8.90;;;;;;;7.06;68.88;100707.69;130004;1267;108546;-87
2024/02/02 12:38:00;;;;;;;18.40;10.40;;;;;;;7.01;69.79;100705.87;129866;1268;108682;-87
2024/02/02 12:41:11;;;;;;;14.50;6.80;;;;;;;7.05;70.10;100704.90;129824;1267;109346;-88
2024/02/02 12:44:19;;;;;;;20.10;7.10;;;;;;;7.09;70.11;100697.69;129911;1266;107694;-87
2024/02/02 12:47:26;;;;;;;22.00;10.70;;;;;;;7.09;69.82;100690.42;129904;1266;108923;-87
2024/02/02 12:50:33;;;;;;;47.00;20.00;;;;;;;7.05;69.91;100691.80;129811;1270;108130;-86
2024/02/02 12:53:40;;;;;;;26.10;10.20;;;;;;;7.06;70.17;100698.48;129801;1264;108679;-87
2024/02/02 12:56:50;;;;;;;16.90;6.20;;;;;;;7.05;70.24;100694.14;129842;1264;106593;-87
2024/02/02 12:59:56;;;;;;;17.20;7.00;;;;;;;7.01;70.28;100694.06;129747;1269;107703;-89
2024/02/02 13:03:05;;;;;;;21.90;8.20;;;;;;;7.02;70.17;100695.23;129960;1267;105964;-87
2024/02/02 13:06:13;;;;;;;22.10;9.50;;;;;;;6.96;69.81;100689.50;129959;1265;108512;-86
2024/02/02 13:09:31;;;;;;;17.50;8.00;;;;;;;6.92;70.19;100692.88;130011;1268;108674;-87
2024/02/02 13:12:46;;;;;;;20.40;7.60;;;;;;;6.92;70.55;100697.09;129994;1267;108493;-87
2024/02/02 13:15:52;;;;;;;20.50;7.00;;;;;;;6.93;70.28;100693.45;129919;1265;108610;-87
2024/02/02 13:18:59;;;;;;;20.30;7.20;;;;;;;6.92;70.07;100692.16;129972;1267;107648;-87
2024/02/02 13:22:05;;;;;;;17.20;7.10;;;;;;;6.86;70.27;100686.17;130063;1266;105883;-87
2024/02/02 13:25:11;;;;;;;15.30;6.20;;;;;;;6.84;70.41;100686.03;129956;1267;108474;-88
2024/02/02 13:28:18;;;;;;;19.90;9.50;;;;;;;6.75;69.65;100681.77;129964;1264;107344;-86
2024/02/02 13:31:25;;;;;;;36.50;18.30;;;;;;;6.59;69.79;100686.49;129818;1267;107736;-87
2024/02/02 13:34:31;;;;;;;25.00;10.40;;;;;;;6.54;70.11;100681.61;129849;1267;107652;-87
2024/02/02 13:37:42;;;;;;;20.20;8.10;;;;;;;6.47;70.29;100668.84;129879;1267;105274;-87
2024/02/02 13:40:49;;;;;;;16.00;6.80;;;;;;;6.48;70.82;100655.85;129861;1267;107979;-87
2024/02/02 13:44:04;;;;;;;94.30;34.60;;;;;;;6.46;70.24;100651.77;129840;1267;108738;-86
2024/02/02 13:47:20;;;;;;;26.60;11.10;;;;;;;6.45;70.14;100650.64;129864;1263;108781;-86
2024/02/02 13:50:37;;;;;;;19.10;9.40;;;;;;;6.41;70.45;100655.20;129928;1267;107748;-87
2024/02/02 13:53:48;;;;;;;23.30;11.30;;;;;;;6.38;70.64;100655.55;129938;1267;107677;-87
2024/02/02 13:56:54;;;;;;;28.40;14.20;;;;;;;6.36;70.65;100650.26;130006;1267;107742;-87
2024/02/02 14:00:00;;;;;;;42.80;22.60;;;;;;;6.34;70.56;100641.45;130053;1267;108679;-88
2024/02/02 14:03:10;;;;;;;77.00;38.30;;;;;;;6.32;70.45;100640.34;130024;1275;108578;-86
2024/02/02 14:06:16;;;;;;;159.80;75.00;;;;;;;6.26;70.69;100629.48;130075;1266;107739;-86
2024/02/02 14:09:23;;;;;;;364.90;171.10;;;;;;;6.23;70.86;100632.84;129939;1264;108880;-87
2024/02/02 14:12:29;;;;;;;252.00;109.40;;;;;;;6.23;71.00;100624.70;130064;1267;108585;-87
2024/02/02 14:15:40;;;;;;;172.70;75.40;;;;;;;6.22;70.87;100621.95;130069;1263;107109;-88
2024/02/02 14:18:45;;;;;;;154.70;82.10;;;;;;;6.22;70.88;100621.42;130054;1266;107740;-88